sensor_id;sensor_type;location;lat;lon;timestamp;pressure;altitude;pressure_sealevel;temperature;humidity
71917;BME280;59793;46.506;6.674;2024-02-16T00:00:37;97220.97;;;9.32;67.21
71917;BME280;59793;46.506;6.674;2024-02-16T00:03:02;97210.53;;;9.11;67.42
71917;BME280;59793;46.506;6.674;2024-02-16T00:05:27;97201.34;;;9.05;67.35
71917;BME280;59793;46.506;6.674;2024-02-16T00:07:53;97208.13;;;9.06;67.54
71917;BME280;59793;46.506;6.674;2024-02-16T00:10:18;97209.53;;;9.03;68.13
71917;BME280;59793;46.506;6.674;2024-02-16T00:12:45;97215.91;;;9.15;67.82
71917;BME280;59793;46.506;6.674;2024-02-16T00:15:10;97202.00;;;9.02;67.89
71917;BME280;59793;46.506;6.674;2024-02-16T00:17:36;97208.00;;;9.02;68.66
71917;BME280;59793;46.506;6.674;2024-02-16T00:20:02;97218.00;;;9.09;69.27
71917;BME280;59793;46.506;6.674;2024-02-16T00:22:28;97198.59;;;9.01;69.51
71917;BME280;59793;46.506;6.674;2024-02-16T00:24:53;97202.75;;;9.02;68.82
71917;BME280;59793;46.506;6.674;2024-02-16T00:27:19;97209.34;;;9.21;67.96
71917;BME280;59793;46.506;6.674;2024-02-16T00:29:44;97216.03;;;9.30;67.37
71917;BME280;59793;46.506;6.674;2024-02-16T00:32:11;97210.75;;;9.18;67.89
71917;BME280;59793;46.506;6.674;2024-02-16T00:34:37;97212.63;;;9.18;67.91
71917;BME280;59793;46.506;6.674;2024-02-16T00:37:04;97216.13;;;9.22;67.88
71917;BME280;59793;46.506;6.674;2024-02-16T00:39:35;97187.84;;;8.94;68.58
71917;BME280;59793;46.506;6.674;2024-02-16T00:42:00;97202.44;;;9.16;68.07
71917;BME280;59793;46.506;6.674;2024-02-16T00:44:25;97201.69;;;9.16;68.00
71917;BME280;59793;46.506;6.674;2024-02-16T00:46:50;97214.19;;;9.31;67.65
71917;BME280;59793;46.506;6.674;2024-02-16T00:49:16;97206.50;;;9.14;67.93
71917;BME280;59793;46.506;6.674;2024-02-16T00:51:41;97210.22;;;9.13;68.78
71917;BME280;59793;46.506;6.674;2024-02-16T00:54:06;97205.28;;;8.99;68.96
71917;BME280;59793;46.506;6.674;2024-02-16T00:56:32;97206.22;;;8.82;70.10
71917;BME280;59793;46.506;6.674;2024-02-16T00:58:57;97202.09;;;8.60;70.80
71917;BME280;59793;46.506;6.674;2024-02-16T01:01:23;97186.88;;;8.53;71.31
71917;BME280;59793;46.506;6.674;2024-02-16T01:03:51;97221.16;;;8.69;71.53
71917;BME280;59793;46.506;6.674;2024-02-16T01:06:17;97215.78;;;8.66;71.60
71917;BME280;59793;46.506;6.674;2024-02-16T01:08:42;97177.78;;;8.51;71.14
71917;BME280;59793;46.506;6.674;2024-02-16T01:11:08;97218.13;;;8.79;70.99
71917;BME280;59793;46.506;6.674;2024-02-16T01:13:33;97222.44;;;8.84;71.10
71917;BME280;59793;46.506;6.674;2024-02-16T01:15:59;97225.00;;;8.72;71.13
71917;BME280;59793;46.506;6.674;2024-02-16T01:18:27;97220.56;;;8.84;70.69
71917;BME280;59793;46.506;6.674;2024-02-16T01:20:53;97235.69;;;9.00;70.48
71917;BME280;59793;46.506;6.674;2024-02-16T01:23:19;97207.31;;;8.81;70.35
71917;BME280;59793;46.506;6.674;2024-02-16T01:25:44;97211.56;;;8.73;70.94
71917;BME280;59793;46.506;6.674;2024-02-16T01:28:10;97245.63;;;8.82;72.01
71917;BME280;59793;46.506;6.674;2024-02-16T01:30:37;97214.59;;;8.63;71.68
71917;BME280;59793;46.506;6.674;2024-02-16T01:33:03;97227.06;;;8.66;72.16
71917;BME280;59793;46.506;6.674;2024-02-16T01:35:29;97217.53;;;8.61;72.34
71917;BME280;59793;46.506;6.674;2024-02-16T01:37:54;97209.00;;;8.65;72.27
71917;BME280;59793;46.506;6.674;2024-02-16T01:40:19;97230.72;;;8.86;72.37
71917;BME280;59793;46.506;6.674;2024-02-16T01:42:47;97225.28;;;8.91;71.99
71917;BME280;59793;46.506;6.674;2024-02-16T01:45:13;97202.28;;;8.88;71.65
71917;BME280;59793;46.506;6.674;2024-02-16T01:47:39;97214.56;;;8.96;71.19
71917;BME280;59793;46.506;6.674;2024-02-16T01:50:07;97179.50;;;8.80;70.82
71917;BME280;59793;46.506;6.674;2024-02-16T01:52:33;97207.00;;;8.95;71.23
71917;BME280;59793;46.506;6.674;2024-02-16T01:55:01;97195.91;;;8.77;71.48
71917;BME280;59793;46.506;6.674;2024-02-16T01:57:29;97199.44;;;8.93;71.33
71917;BME280;59793;46.506;6.674;2024-02-16T01:59:54;97200.31;;;8.97;70.88
71917;BME280;59793;46.506;6.674;2024-02-16T02:02:20;97221.63;;;9.17;70.28
71917;BME280;59793;46.506;6.674;2024-02-16T02:04:45;97207.91;;;8.99;70.82
71917;BME280;59793;46.506;6.674;2024-02-16T02:07:12;97212.63;;;9.05;70.65
71917;BME280;59793;46.506;6.674;2024-02-16T02:09:38;97226.31;;;9.11;70.70
71917;BME280;59793;46.506;6.674;2024-02-16T02:12:03;97226.72;;;9.01;71.28
71917;BME280;59793;46.506;6.674;2024-02-16T02:14:29;97198.22;;;8.78;71.87
71917;BME280;59793;46.506;6.674;2024-02-16T02:16:54;97202.25;;;8.76;72.31
71917;BME280;59793;46.506;6.674;2024-02-16T02:19:20;97213.59;;;8.68;72.89
71917;BME280;59793;46.506;6.674;2024-02-16T02:21:45;97220.09;;;8.70;73.28
71917;BME280;59793;46.506;6.674;2024-02-16T02:24:10;97220.63;;;8.76;72.96
71917;BME280;59793;46.506;6.674;2024-02-16T02:26:35;97212.88;;;8.79;72.51
71917;BME280;59793;46.506;6.674;2024-02-16T02:29:01;97189.69;;;8.81;72.08
71917;BME280;59793;46.506;6.674;2024-02-16T02:31:26;97193.75;;;8.91;71.90
71917;BME280;59793;46.506;6.674;2024-02-16T02:33:51;97215.66;;;8.95;72.23
71917;BME280;59793;46.506;6.674;2024-02-16T02:36:17;97196.91;;;8.84;72.17
71917;BME280;59793;46.506;6.674;2024-02-16T02:38:42;97217.63;;;8.98;72.12
71917;BME280;59793;46.506;6.674;2024-02-16T02:41:08;97197.44;;;8.78;72.07
71917;BME280;59793;46.506;6.674;2024-02-16T02:43:33;97193.31;;;8.89;71.56
71917;BME280;59793;46.506;6.674;2024-02-16T02:45:59;97172.03;;;8.70;71.85
71917;BME280;59793;46.506;6.674;2024-02-16T02:48:24;97221.56;;;9.04;72.45
71917;BME280;59793;46.506;6.674;2024-02-16T02:50:50;97205.09;;;8.83;72.90
71917;BME280;59793;46.506;6.674;2024-02-16T02:53:15;97210.28;;;8.92;72.39
71917;BME280;59793;46.506;6.674;2024-02-16T02:55:40;97241.66;;;9.09;72.51
71917;BME280;59793;46.506;6.674;2024-02-16T02:58:06;97217.75;;;9.02;72.25
71917;BME280;59793;46.506;6.674;2024-02-16T03:00:31;97199.66;;;9.00;71.88
71917;BME280;59793;46.506;6.674;2024-02-16T03:02:56;97187.63;;;8.99;71.38
71917;BME280;59793;46.506;6.674;2024-02-16T03:05:22;97238.06;;;9.26;71.38
71917;BME280;59793;46.506;6.674;2024-02-16T03:07:47;97232.13;;;9.29;71.17
71917;BME280;59793;46.506;6.674;2024-02-16T03:10:12;97220.84;;;9.16;71.61
71917;BME280;59793;46.506;6.674;2024-02-16T03:12:39;97227.75;;;9.21;71.35
71917;BME280;59793;46.506;6.674;2024-02-16T03:15:05;97206.50;;;9.14;71.19
71917;BME280;59793;46.506;6.674;2024-02-16T03:17:31;97215.94;;;9.27;71.19
71917;BME280;59793;46.506;6.674;2024-02-16T03:19:56;97222.06;;;9.19;71.22
71917;BME280;59793;46.506;6.674;2024-02-16T03:22:21;97193.22;;;8.98;71.54
71917;BME280;59793;46.506;6.674;2024-02-16T03:24:47;97222.28;;;9.26;71.23
71917;BME280;59793;46.506;6.674;2024-02-16T03:27:13;97215.47;;;9.25;71.48
71917;BME280;59793;46.506;6.674;2024-02-16T03:29:39;97212.44;;;9.23;71.64
71917;BME280;59793;46.506;6.674;2024-02-16T03:32:04;97176.78;;;9.01;71.56
71917;BME280;59793;46.506;6.674;2024-02-16T03:34:29;97215.16;;;9.26;71.73
71917;BME280;59793;46.506;6.674;2024-02-16T03:36:55;97194.00;;;9.10;71.41
71917;BME280;59793;46.506;6.674;2024-02-16T03:39:20;97222.50;;;9.21;71.58
71917;BME280;59793;46.506;6.674;2024-02-16T03:41:45;97224.00;;;9.22;71.09
71917;BME280;59793;46.506;6.674;2024-02-16T03:44:15;97199.25;;;9.10;70.24
71917;BME280;59793;46.506;6.674;2024-02-16T03:46:43;97189.50;;;9.11;70.02
71917;BME280;59793;46.506;6.674;2024-02-16T03:49:08;97153.03;;;8.85;70.38
71917;BME280;59793;46.506;6.674;2024-02-16T03:51:33;97197.56;;;8.94;71.53
71917;BME280;59793;46.506;6.674;2024-02-16T03:53:59;97225.41;;;9.07;72.00
71917;BME280;59793;46.506;6.674;2024-02-16T03:56:24;97227.69;;;8.96;73.09
71917;BME280;59793;46.506;6.674;2024-02-16T03:58:50;97224.84;;;8.89;73.58
71917;BME280;59793;46.506;6.674;2024-02-16T04:01:15;97194.13;;;8.69;73.29
71917;BME280;59793;46.506;6.674;2024-02-16T04:03:40;97239.19;;;8.92;73.28
71917;BME280;59793;46.506;6.674;2024-02-16T04:06:07;97234.06;;;8.95;72.65
71917;BME280;59793;46.506;6.674;2024-02-16T04:08:32;97229.25;;;9.09;72.53
71917;BME280;59793;46.506;6.674;2024-02-16T04:10:58;97232.31;;;9.12;72.22
71917;BME280;59793;46.506;6.674;2024-02-16T04:13:23;97201.53;;;9.00;72.26
71917;BME280;59793;46.506;6.674;2024-02-16T04:15:48;97211.41;;;9.03;72.51
71917;BME280;59793;46.506;6.674;2024-02-16T04:18:13;97233.13;;;9.24;72.44
71917;BME280;59793;46.506;6.674;2024-02-16T04:20:39;97203.19;;;9.04;72.67
71917;BME280;59793;46.506;6.674;2024-02-16T04:23:06;97229.03;;;9.15;72.39
71917;BME280;59793;46.506;6.674;2024-02-16T04:25:31;97222.94;;;9.23;71.70
71917;BME280;59793;46.506;6.674;2024-02-16T04:27:56;97249.22;;;9.23;72.43
71917;BME280;59793;46.506;6.674;2024-02-16T04:30:22;97255.13;;;9.20;71.54
71917;BME280;59793;46.506;6.674;2024-02-16T04:32:48;97223.44;;;9.04;72.19
71917;BME280;59793;46.506;6.674;2024-02-16T04:35:13;97216.31;;;8.92;72.82
71917;BME280;59793;46.506;6.674;2024-02-16T04:37:40;97259.69;;;9.10;73.62
71917;BME280;59793;46.506;6.674;2024-02-16T04:40:06;97203.50;;;8.91;74.32
71917;BME280;59793;46.506;6.674;2024-02-16T04:42:32;97224.44;;;9.12;74.09
71917;BME280;59793;46.506;6.674;2024-02-16T04:44:58;97206.03;;;8.99;73.50
71917;BME280;59793;46.506;6.674;2024-02-16T04:47:27;97249.53;;;9.21;73.33
71917;BME280;59793;46.506;6.674;2024-02-16T04:49:52;97247.66;;;9.22;72.69
71917;BME280;59793;46.506;6.674;2024-02-16T04:52:17;97233.13;;;9.12;72.57
71917;BME280;59793;46.506;6.674;2024-02-16T04:54:43;97238.69;;;9.10;72.37
71917;BME280;59793;46.506;6.674;2024-02-16T04:57:08;97236.16;;;9.02;72.66
71917;BME280;59793;46.506;6.674;2024-02-16T04:59:33;97242.63;;;9.17;70.82
71917;BME280;59793;46.506;6.674;2024-02-16T05:01:59;97242.41;;;9.22;70.21
71917;BME280;59793;46.506;6.674;2024-02-16T05:04:24;97232.31;;;9.12;70.39
71917;BME280;59793;46.506;6.674;2024-02-16T05:06:49;97245.69;;;9.06;71.99
71917;BME280;59793;46.506;6.674;2024-02-16T05:09:17;97247.63;;;8.97;72.73
71917;BME280;59793;46.506;6.674;2024-02-16T05:11:43;97239.06;;;8.88;73.07
71917;BME280;59793;46.506;6.674;2024-02-16T05:14:10;97246.75;;;8.93;73.96
71917;BME280;59793;46.506;6.674;2024-02-16T05:16:43;97242.78;;;8.87;74.91
71917;BME280;59793;46.506;6.674;2024-02-16T05:19:09;97255.31;;;9.02;75.11
71917;BME280;59793;46.506;6.674;2024-02-16T05:21:34;97263.84;;;8.99;75.69
71917;BME280;59793;46.506;6.674;2024-02-16T05:24:00;97253.09;;;8.92;75.13
71917;BME280;59793;46.506;6.674;2024-02-16T05:26:25;97252.88;;;8.97;73.72
71917;BME280;59793;46.506;6.674;2024-02-16T05:28:51;97254.06;;;8.88;73.12
71917;BME280;59793;46.506;6.674;2024-02-16T05:31:17;97257.00;;;8.86;72.66
71917;BME280;59793;46.506;6.674;2024-02-16T05:33:44;97231.03;;;8.51;73.63
71917;BME280;59793;46.506;6.674;2024-02-16T05:36:10;97256.69;;;8.88;73.13
71917;BME280;59793;46.506;6.674;2024-02-16T05:38:35;97256.19;;;8.94;73.15
71917;BME280;59793;46.506;6.674;2024-02-16T05:41:06;97272.38;;;8.96;72.52
71917;BME280;59793;46.506;6.674;2024-02-16T05:43:32;97261.78;;;9.05;72.06
71917;BME280;59793;46.506;6.674;2024-02-16T05:45:58;97233.56;;;8.81;72.29
71917;BME280;59793;46.506;6.674;2024-02-16T05:48:24;97250.25;;;8.97;72.02
71917;BME280;59793;46.506;6.674;2024-02-16T05:50:51;97260.59;;;9.15;71.89
71917;BME280;59793;46.506;6.674;2024-02-16T05:53:17;97246.91;;;9.09;71.53
71917;BME280;59793;46.506;6.674;2024-02-16T05:55:44;97247.53;;;9.06;70.98
71917;BME280;59793;46.506;6.674;2024-02-16T05:58:09;97277.16;;;9.15;71.21
71917;BME280;59793;46.506;6.674;2024-02-16T06:00:35;97236.09;;;8.90;71.53
71917;BME280;59793;46.506;6.674;2024-02-16T06:03:01;97268.00;;;9.00;72.32
71917;BME280;59793;46.506;6.674;2024-02-16T06:05:26;97234.91;;;8.87;72.25
71917;BME280;59793;46.506;6.674;2024-02-16T06:07:53;97259.28;;;9.08;72.50
71917;BME280;59793;46.506;6.674;2024-02-16T06:10:18;97264.94;;;8.98;73.05
71917;BME280;59793;46.506;6.674;2024-02-16T06:12:43;97244.31;;;8.88;72.79
71917;BME280;59793;46.506;6.674;2024-02-16T06:15:09;97228.97;;;8.78;73.06
71917;BME280;59793;46.506;6.674;2024-02-16T06:17:35;97275.03;;;9.08;73.98
71917;BME280;59793;46.506;6.674;2024-02-16T06:20:01;97262.03;;;9.12;73.98
71917;BME280;59793;46.506;6.674;2024-02-16T06:22:28;97274.38;;;9.12;74.39
71917;BME280;59793;46.506;6.674;2024-02-16T06:24:53;97271.84;;;9.03;74.98
71917;BME280;59793;46.506;6.674;2024-02-16T06:27:18;97263.06;;;8.99;75.27
71917;BME280;59793;46.506;6.674;2024-02-16T06:29:44;97259.44;;;8.91;75.44
71917;BME280;59793;46.506;6.674;2024-02-16T06:32:10;97259.59;;;8.74;76.06
71917;BME280;59793;46.506;6.674;2024-02-16T06:34:37;97274.25;;;8.75;76.09
71917;BME280;59793;46.506;6.674;2024-02-16T06:37:02;97251.66;;;8.61;75.98
71917;BME280;59793;46.506;6.674;2024-02-16T06:39:28;97259.88;;;8.60;75.50
71917;BME280;59793;46.506;6.674;2024-02-16T06:41:56;97260.06;;;8.55;75.34
71917;BME280;59793;46.506;6.674;2024-02-16T06:44:21;97276.88;;;8.75;74.85
71917;BME280;59793;46.506;6.674;2024-02-16T06:46:47;97291.75;;;8.71;75.39
71917;BME280;59793;46.506;6.674;2024-02-16T06:49:12;97264.47;;;8.63;75.28
71917;BME280;59793;46.506;6.674;2024-02-16T06:51:37;97273.38;;;8.71;75.07
71917;BME280;59793;46.506;6.674;2024-02-16T06:54:03;97295.91;;;8.93;74.72
71917;BME280;59793;46.506;6.674;2024-02-16T06:56:29;97303.50;;;8.73;75.35
71917;BME280;59793;46.506;6.674;2024-02-16T06:58:55;97301.78;;;8.90;75.09
71917;BME280;59793;46.506;6.674;2024-02-16T07:01:21;97279.22;;;8.76;74.82
71917;BME280;59793;46.506;6.674;2024-02-16T07:03:46;97289.97;;;8.83;74.99
71917;BME280;59793;46.506;6.674;2024-02-16T07:06:12;97292.13;;;8.81;74.78
71917;BME280;59793;46.506;6.674;2024-02-16T07:08:39;97287.88;;;8.89;74.67
71917;BME280;59793;46.506;6.674;2024-02-16T07:11:05;97285.84;;;8.95;74.30
71917;BME280;59793;46.506;6.674;2024-02-16T07:13:31;97304.63;;;9.18;74.25
71917;BME280;59793;46.506;6.674;2024-02-16T07:15:57;97297.00;;;8.92;74.45
71917;BME280;59793;46.506;6.674;2024-02-16T07:18:22;97304.59;;;9.05;74.86
71917;BME280;59793;46.506;6.674;2024-02-16T07:20:48;97293.50;;;9.00;75.00
71917;BME280;59793;46.506;6.674;2024-02-16T07:23:13;97301.59;;;8.95;75.46
71917;BME280;59793;46.506;6.674;2024-02-16T07:25:41;97323.00;;;9.05;75.44
71917;BME280;59793;46.506;6.674;2024-02-16T07:28:07;97319.22;;;9.27;74.86
71917;BME280;59793;46.506;6.674;2024-02-16T07:30:33;97325.59;;;9.39;74.58
71917;BME280;59793;46.506;6.674;2024-02-16T07:32:59;97320.22;;;9.35;74.68
71917;BME280;59793;46.506;6.674;2024-02-16T07:35:24;97336.03;;;9.47;73.89
71917;BME280;59793;46.506;6.674;2024-02-16T07:37:50;97330.31;;;9.45;74.13
71917;BME280;59793;46.506;6.674;2024-02-16T07:40:19;97341.31;;;9.60;74.36
71917;BME280;59793;46.506;6.674;2024-02-16T07:42:45;97340.66;;;9.63;74.02
71917;BME280;59793;46.506;6.674;2024-02-16T07:45:11;97326.53;;;9.55;74.00
71917;BME280;59793;46.506;6.674;2024-02-16T07:47:37;97306.91;;;9.52;73.38
71917;BME280;59793;46.506;6.674;2024-02-16T07:50:03;97354.06;;;9.82;73.69
71917;BME280;59793;46.506;6.674;2024-02-16T07:52:28;97341.00;;;9.61;73.93
71917;BME280;59793;46.506;6.674;2024-02-16T07:54:54;97349.69;;;9.86;72.94
71917;BME280;59793;46.506;6.674;2024-02-16T07:57:19;97372.28;;;10.12;72.19
71917;BME280;59793;46.506;6.674;2024-02-16T07:59:45;97363.09;;;10.18;72.53
71917;BME280;59793;46.506;6.674;2024-02-16T08:02:10;97358.34;;;10.23;71.75
71917;BME280;59793;46.506;6.674;2024-02-16T08:04:40;97363.44;;;10.28;71.46
71917;BME280;59793;46.506;6.674;2024-02-16T08:07:06;97374.06;;;10.44;71.34
71917;BME280;59793;46.506;6.674;2024-02-16T08:09:31;97361.75;;;10.48;70.71
71917;BME280;59793;46.506;6.674;2024-02-16T08:11:57;97353.84;;;10.61;70.38
71917;BME280;59793;46.506;6.674;2024-02-16T08:14:22;97349.28;;;10.73;70.14
71917;BME280;59793;46.506;6.674;2024-02-16T08:16:47;97346.53;;;10.82;70.06
71917;BME280;59793;46.506;6.674;2024-02-16T08:19:12;97359.97;;;11.05;69.07
71917;BME280;59793;46.506;6.674;2024-02-16T08:21:39;97327.25;;;10.66;69.38
71917;BME280;59793;46.506;6.674;2024-02-16T08:24:05;97372.38;;;11.05;68.71
71917;BME280;59793;46.506;6.674;2024-02-16T08:26:30;97366.44;;;11.08;69.17
71917;BME280;59793;46.506;6.674;2024-02-16T08:28:56;97353.88;;;11.17;68.75
71917;BME280;59793;46.506;6.674;2024-02-16T08:31:21;97361.69;;;11.41;68.66
71917;BME280;59793;46.506;6.674;2024-02-16T08:33:47;97359.56;;;11.47;68.11
71917;BME280;59793;46.506;6.674;2024-02-16T08:36:13;97368.69;;;11.49;67.75
71917;BME280;59793;46.506;6.674;2024-02-16T08:38:38;97368.00;;;11.53;67.76
71917;BME280;59793;46.506;6.674;2024-02-16T08:41:04;97356.72;;;11.24;68.17
71917;BME280;59793;46.506;6.674;2024-02-16T08:43:29;97372.66;;;10.87;69.04
71917;BME280;59793;46.506;6.674;2024-02-16T08:45:55;97387.50;;;10.80;70.21
71917;BME280;59793;46.506;6.674;2024-02-16T08:48:21;97396.50;;;10.79;70.48
71917;BME280;59793;46.506;6.674;2024-02-16T08:50:46;97380.63;;;10.50;70.75
71917;BME280;59793;46.506;6.674;2024-02-16T08:53:12;97395.00;;;10.65;71.16
71917;BME280;59793;46.506;6.674;2024-02-16T08:55:39;97388.75;;;10.58;70.87
71917;BME280;59793;46.506;6.674;2024-02-16T08:58:07;97405.84;;;10.76;70.44
71917;BME280;59793;46.506;6.674;2024-02-16T09:00:33;97416.28;;;11.13;69.58
71917;BME280;59793;46.506;6.674;2024-02-16T09:02:58;97391.75;;;10.96;68.90
71917;BME280;59793;46.506;6.674;2024-02-16T09:05:23;97403.66;;;11.18;68.59
71917;BME280;59793;46.506;6.674;2024-02-16T09:07:49;97411.28;;;11.36;68.06
71917;BME280;59793;46.506;6.674;2024-02-16T09:10:14;97388.38;;;11.24;68.57
71917;BME280;59793;46.506;6.674;2024-02-16T09:12:40;97421.63;;;11.57;67.49
71917;BME280;59793;46.506;6.674;2024-02-16T09:15:06;97419.22;;;11.52;67.03
71917;BME280;59793;46.506;6.674;2024-02-16T09:17:31;97413.44;;;11.46;67.42
71917;BME280;59793;46.506;6.674;2024-02-16T09:19:57;97418.56;;;11.27;67.52
71917;BME280;59793;46.506;6.674;2024-02-16T09:22:22;97413.94;;;11.52;65.38
71917;BME280;59793;46.506;6.674;2024-02-16T09:24:48;97419.22;;;11.52;66.12
71917;BME280;59793;46.506;6.674;2024-02-16T09:27:13;97414.47;;;11.29;66.89
71917;BME280;59793;46.506;6.674;2024-02-16T09:29:38;97422.03;;;11.59;65.01
71917;BME280;59793;46.506;6.674;2024-02-16T09:32:05;97420.03;;;11.68;65.33
71917;BME280;59793;46.506;6.674;2024-02-16T09:34:31;97432.81;;;11.82;65.44
71917;BME280;59793;46.506;6.674;2024-02-16T09:36:56;97435.38;;;11.78;65.49
71917;BME280;59793;46.506;6.674;2024-02-16T09:39:21;97422.94;;;11.79;65.29
71917;BME280;59793;46.506;6.674;2024-02-16T09:41:50;97439.94;;;11.93;65.25
71917;BME280;59793;46.506;6.674;2024-02-16T09:44:16;97425.66;;;11.66;65.54
71917;BME280;59793;46.506;6.674;2024-02-16T09:46:42;97442.75;;;11.85;65.65
71917;BME280;59793;46.506;6.674;2024-02-16T09:49:08;97433.38;;;12.03;65.27
71917;BME280;59793;46.506;6.674;2024-02-16T09:51:37;97440.13;;;12.16;64.46
71917;BME280;59793;46.506;6.674;2024-02-16T09:54:03;97430.38;;;12.05;65.05
71917;BME280;59793;46.506;6.674;2024-02-16T09:56:28;97431.69;;;12.11;64.12
71917;BME280;59793;46.506;6.674;2024-02-16T09:58:54;97436.88;;;11.91;65.29
71917;BME280;59793;46.506;6.674;2024-02-16T10:01:23;97453.34;;;12.16;65.31
71917;BME280;59793;46.506;6.674;2024-02-16T10:03:49;97439.00;;;12.17;63.96
71917;BME280;59793;46.506;6.674;2024-02-16T10:06:16;97434.91;;;11.88;64.63
71917;BME280;59793;46.506;6.674;2024-02-16T10:08:48;97460.88;;;11.86;65.60
71917;BME280;59793;46.506;6.674;2024-02-16T10:11:18;97466.69;;;11.92;65.02
71917;BME280;59793;46.506;6.674;2024-02-16T10:13:53;97473.53;;;12.25;64.04
71917;BME280;59793;46.506;6.674;2024-02-16T10:16:18;97458.94;;;12.15;65.05
71917;BME280;59793;46.506;6.674;2024-02-16T10:18:43;97439.38;;;12.16;64.12
71917;BME280;59793;46.506;6.674;2024-02-16T10:21:09;97468.16;;;12.53;63.57
71917;BME280;59793;46.506;6.674;2024-02-16T10:23:34;97437.38;;;12.44;62.92
71917;BME280;59793;46.506;6.674;2024-02-16T10:25:59;97480.03;;;12.78;62.43
71917;BME280;59793;46.506;6.674;2024-02-16T10:28:28;97470.44;;;12.70;61.96
71917;BME280;59793;46.506;6.674;2024-02-16T10:30:58;97481.28;;;12.65;61.87
71917;BME280;59793;46.506;6.674;2024-02-16T10:33:27;97466.34;;;12.57;62.05
71917;BME280;59793;46.506;6.674;2024-02-16T10:35:57;97474.63;;;12.55;62.05
71917;BME280;59793;46.506;6.674;2024-02-16T10:38:23;97482.97;;;12.57;62.54
71917;BME280;59793;46.506;6.674;2024-02-16T10:40:50;97478.09;;;12.75;62.67
71917;BME280;59793;46.506;6.674;2024-02-16T10:43:17;97480.50;;;13.00;62.56
71917;BME280;59793;46.506;6.674;2024-02-16T10:45:42;97464.25;;;12.98;61.25
71917;BME280;59793;46.506;6.674;2024-02-16T10:48:10;97477.47;;;13.17;61.57
71917;BME280;59793;46.506;6.674;2024-02-16T10:50:36;97475.44;;;13.26;61.56
71917;BME280;59793;46.506;6.674;2024-02-16T10:53:12;97473.81;;;13.22;61.39
71917;BME280;59793;46.506;6.674;2024-02-16T10:55:39;97487.16;;;13.45;59.57
71917;BME280;59793;46.506;6.674;2024-02-16T10:58:07;97483.66;;;13.05;60.73
71917;BME280;59793;46.506;6.674;2024-02-16T11:00:33;97473.16;;;13.09;59.71
71917;BME280;59793;46.506;6.674;2024-02-16T11:03:02;97494.38;;;13.28;59.88
71917;BME280;59793;46.506;6.674;2024-02-16T11:05:35;97454.06;;;13.00;59.02
71917;BME280;59793;46.506;6.674;2024-02-16T11:08:04;97485.28;;;13.10;59.16
71917;BME280;59793;46.506;6.674;2024-02-16T11:10:30;97465.63;;;13.27;58.15
71917;BME280;59793;46.506;6.674;2024-02-16T11:13:01;97468.63;;;13.45;57.73
71917;BME280;59793;46.506;6.674;2024-02-16T11:15:28;97476.69;;;13.71;57.84
71917;BME280;59793;46.506;6.674;2024-02-16T11:18:00;97466.31;;;13.62;56.80
71917;BME280;59793;46.506;6.674;2024-02-16T11:20:26;97471.31;;;13.87;56.60
71917;BME280;59793;46.506;6.674;2024-02-16T11:22:52;97474.56;;;14.00;55.83
71917;BME280;59793;46.506;6.674;2024-02-16T11:25:19;97485.41;;;14.14;55.59
71917;BME280;59793;46.506;6.674;2024-02-16T11:27:46;97471.53;;;13.78;56.38
71917;BME280;59793;46.506;6.674;2024-02-16T11:30:12;97483.03;;;14.09;56.76
71917;BME280;59793;46.506;6.674;2024-02-16T11:32:37;97487.44;;;14.01;55.67
71917;BME280;59793;46.506;6.674;2024-02-16T11:35:09;97465.09;;;13.79;54.72
71917;BME280;59793;46.506;6.674;2024-02-16T11:37:36;97483.41;;;13.88;54.86
71917;BME280;59793;46.506;6.674;2024-02-16T11:40:03;97459.81;;;13.79;54.96
71917;BME280;59793;46.506;6.674;2024-02-16T11:42:28;97484.34;;;13.96;55.63
71917;BME280;59793;46.506;6.674;2024-02-16T11:44:54;97480.44;;;13.90;55.78
71917;BME280;59793;46.506;6.674;2024-02-16T11:47:20;97479.41;;;13.75;56.04
71917;BME280;59793;46.506;6.674;2024-02-16T11:49:50;97477.78;;;13.90;55.68
71917;BME280;59793;46.506;6.674;2024-02-16T11:52:24;97473.66;;;13.92;56.16
71917;BME280;59793;46.506;6.674;2024-02-16T11:54:49;97472.84;;;14.34;56.06
71917;BME280;59793;46.506;6.674;2024-02-16T11:57:15;97477.09;;;14.62;54.75
71917;BME280;59793;46.506;6.674;2024-02-16T11:59:40;97465.31;;;14.86;54.17
71917;BME280;59793;46.506;6.674;2024-02-16T12:02:05;97465.97;;;15.05;54.33
71917;BME280;59793;46.506;6.674;2024-02-16T12:04:31;97462.75;;;15.23;53.56
71917;BME280;59793;46.506;6.674;2024-02-16T12:06:57;97460.94;;;15.61;52.96
71917;BME280;59793;46.506;6.674;2024-02-16T12:09:22;97459.25;;;15.79;51.59
71917;BME280;59793;46.506;6.674;2024-02-16T12:11:49;97459.34;;;15.90;51.48
71917;BME280;59793;46.506;6.674;2024-02-16T12:14:15;97456.09;;;15.66;51.28
71917;BME280;59793;46.506;6.674;2024-02-16T12:16:40;97443.78;;;15.54;51.30
71917;BME280;59793;46.506;6.674;2024-02-16T12:19:06;97456.84;;;15.67;51.27
71917;BME280;59793;46.506;6.674;2024-02-16T12:21:32;97443.88;;;15.65;51.03
71917;BME280;59793;46.506;6.674;2024-02-16T12:23:57;97440.59;;;15.75;51.30
71917;BME280;59793;46.506;6.674;2024-02-16T12:26:22;97438.97;;;16.01;50.69
71917;BME280;59793;46.506;6.674;2024-02-16T12:28:47;97437.78;;;16.46;50.43
71917;BME280;59793;46.506;6.674;2024-02-16T12:31:17;97437.56;;;16.66;49.13
71917;BME280;59793;46.506;6.674;2024-02-16T12:33:43;97428.97;;;16.87;48.46
71917;BME280;59793;46.506;6.674;2024-02-16T12:36:08;97431.00;;;17.11;48.63
71917;BME280;59793;46.506;6.674;2024-02-16T12:38:33;97429.56;;;17.32;47.86
71917;BME280;59793;46.506;6.674;2024-02-16T12:40:58;97431.09;;;17.36;47.55
71917;BME280;59793;46.506;6.674;2024-02-16T12:43:25;97421.13;;;17.15;48.13
71917;BME280;59793;46.506;6.674;2024-02-16T12:45:50;97427.56;;;17.07;48.76
71917;BME280;59793;46.506;6.674;2024-02-16T12:48:15;97430.22;;;17.11;48.04
71917;BME280;59793;46.506;6.674;2024-02-16T12:50:41;97424.16;;;17.10;48.35
71917;BME280;59793;46.506;6.674;2024-02-16T12:53:07;97436.25;;;16.97;48.16
71917;BME280;59793;46.506;6.674;2024-02-16T12:55:32;97427.97;;;17.20;47.68
71917;BME280;59793;46.506;6.674;2024-02-16T12:57:57;97420.34;;;17.15;47.15
71917;BME280;59793;46.506;6.674;2024-02-16T13:00:22;97424.19;;;17.21;47.19